sensor_id;sensor_type;location;lat;lon;timestamp;P1;durP1;ratioP1;P2;durP2;ratioP2
17955;SDS011;27666;51.498;11.966;2024-01-30T00:02:03;10.40;;;6.07;;
17955;SDS011;27666;51.498;11.966;2024-01-30T00:04:50;12.17;;;6.67;;
17955;SDS011;27666;51.498;11.966;2024-01-30T00:07:37;9.53;;;5.80;;
17955;SDS011;27666;51.498;11.966;2024-01-30T00:10:23;9.27;;;5.93;;
17955;SDS011;27666;51.498;11.966;2024-01-30T00:13:10;10.87;;;5.73;;
17955;SDS011;27666;51.498;11.966;2024-01-30T00:15:58;9.67;;;6.37;;
17955;SDS011;27666;51.498;11.966;2024-01-30T00:18:46;9.20;;;5.43;;
17955;SDS011;27666;51.498;11.966;2024-01-30T00:21:33;10.20;;;5.97;;
17955;SDS011;27666;51.498;11.966;2024-01-30T00:24:19;9.73;;;6.13;;
17955;SDS011;27666;51.498;11.966;2024-01-30T00:27:06;8.50;;;5.40;;
17955;SDS011;27666;51.498;11.966;2024-01-30T00:29:53;13.30;;;5.67;;
17955;SDS011;27666;51.498;11.966;2024-01-30T00:32:40;12.07;;;6.13;;
17955;SDS011;27666;51.498;11.966;2024-01-30T00:35:28;10.87;;;6.53;;
17955;SDS011;27666;51.498;11.966;2024-01-30T00:38:14;11.37;;;6.40;;
17955;SDS011;27666;51.498;11.966;2024-01-30T00:41:01;8.00;;;5.80;;
17955;SDS011;27666;51.498;11.966;2024-01-30T00:43:47;9.87;;;6.30;;
17955;SDS011;27666;51.498;11.966;2024-01-30T00:46:34;6.57;;;5.27;;
17955;SDS011;27666;51.498;11.966;2024-01-30T00:49:20;10.57;;;5.90;;
17955;SDS011;27666;51.498;11.966;2024-01-30T00:52:08;8.63;;;5.53;;
17955;SDS011;27666;51.498;11.966;2024-01-30T00:54:55;8.60;;;5.67;;
17955;SDS011;27666;51.498;11.966;2024-01-30T00:57:42;12.27;;;5.70;;
17955;SDS011;27666;51.498;11.966;2024-01-30T01:00:30;8.50;;;6.07;;
17955;SDS011;27666;51.498;11.966;2024-01-30T01:03:17;9.57;;;5.57;;
17955;SDS011;27666;51.498;11.966;2024-01-30T01:06:04;9.40;;;5.97;;
17955;SDS011;27666;51.498;11.966;2024-01-30T01:08:52;7.00;;;5.40;;
17955;SDS011;27666;51.498;11.966;2024-01-30T01:11:39;7.13;;;5.77;;
17955;SDS011;27666;51.498;11.966;2024-01-30T01:14:26;9.93;;;5.60;;
17955;SDS011;27666;51.498;11.966;2024-01-30T01:17:12;11.50;;;6.07;;
17955;SDS011;27666;51.498;11.966;2024-01-30T01:19:58;7.67;;;5.63;;
17955;SDS011;27666;51.498;11.966;2024-01-30T01:22:45;10.23;;;6.17;;
17955;SDS011;27666;51.498;11.966;2024-01-30T01:25:32;11.60;;;5.97;;
17955;SDS011;27666;51.498;11.966;2024-01-30T01:28:19;11.27;;;5.47;;
17955;SDS011;27666;51.498;11.966;2024-01-30T01:31:05;8.67;;;6.03;;
17955;SDS011;27666;51.498;11.966;2024-01-30T01:33:51;8.37;;;5.23;;
17955;SDS011;27666;51.498;11.966;2024-01-30T01:36:39;9.23;;;5.80;;
17955;SDS011;27666;51.498;11.966;2024-01-30T01:39:25;7.80;;;5.10;;
17955;SDS011;27666;51.498;11.966;2024-01-30T01:42:13;7.43;;;5.07;;
17955;SDS011;27666;51.498;11.966;2024-01-30T01:45:02;9.07;;;5.23;;
17955;SDS011;27666;51.498;11.966;2024-01-30T01:47:50;7.77;;;5.23;;
17955;SDS011;27666;51.498;11.966;2024-01-30T01:50:38;7.17;;;5.67;;
17955;SDS011;27666;51.498;11.966;2024-01-30T01:53:25;7.70;;;5.47;;
17955;SDS011;27666;51.498;11.966;2024-01-30T01:56:12;7.77;;;5.33;;
17955;SDS011;27666;51.498;11.966;2024-01-30T01:59:04;10.73;;;5.50;;
17955;SDS011;27666;51.498;11.966;2024-01-30T02:01:54;7.43;;;4.87;;
17955;SDS011;27666;51.498;11.966;2024-01-30T02:04:42;8.17;;;5.73;;
17955;SDS011;27666;51.498;11.966;2024-01-30T02:07:28;8.03;;;5.17;;
17955;SDS011;27666;51.498;11.966;2024-01-30T02:10:15;7.60;;;5.13;;
17955;SDS011;27666;51.498;11.966;2024-01-30T02:13:04;8.60;;;5.77;;
17955;SDS011;27666;51.498;11.966;2024-01-30T02:15:52;7.90;;;5.40;;
17955;SDS011;27666;51.498;11.966;2024-01-30T02:18:39;8.97;;;5.90;;
17955;SDS011;27666;51.498;11.966;2024-01-30T02:21:32;9.77;;;5.50;;
17955;SDS011;27666;51.498;11.966;2024-01-30T02:24:19;7.17;;;4.87;;
17955;SDS011;27666;51.498;11.966;2024-01-30T02:27:05;6.47;;;5.37;;
17955;SDS011;27666;51.498;11.966;2024-01-30T02:29:52;7.07;;;5.03;;
17955;SDS011;27666;51.498;11.966;2024-01-30T02:32:38;9.13;;;5.43;;
17955;SDS011;27666;51.498;11.966;2024-01-30T02:35:25;8.33;;;5.00;;
17955;SDS011;27666;51.498;11.966;2024-01-30T02:38:12;8.40;;;5.20;;
17955;SDS011;27666;51.498;11.966;2024-01-30T02:40:59;7.47;;;5.63;;
17955;SDS011;27666;51.498;11.966;2024-01-30T02:43:46;10.33;;;6.33;;
17955;SDS011;27666;51.498;11.966;2024-01-30T02:46:33;8.30;;;5.13;;
17955;SDS011;27666;51.498;11.966;2024-01-30T02:49:19;9.03;;;5.00;;
17955;SDS011;27666;51.498;11.966;2024-01-30T02:52:06;7.43;;;4.67;;
17955;SDS011;27666;51.498;11.966;2024-01-30T02:54:54;7.43;;;5.17;;
17955;SDS011;27666;51.498;11.966;2024-01-30T02:57:41;9.87;;;5.67;;
17955;SDS011;27666;51.498;11.966;2024-01-30T03:00:27;8.53;;;5.40;;
17955;SDS011;27666;51.498;11.966;2024-01-30T03:03:13;10.57;;;5.30;;
17955;SDS011;27666;51.498;11.966;2024-01-30T03:06:00;8.90;;;5.63;;
17955;SDS011;27666;51.498;11.966;2024-01-30T03:08:46;8.60;;;5.50;;
17955;SDS011;27666;51.498;11.966;2024-01-30T03:11:34;7.27;;;5.43;;
17955;SDS011;27666;51.498;11.966;2024-01-30T03:14:20;7.07;;;5.23;;
17955;SDS011;27666;51.498;11.966;2024-01-30T03:17:07;8.63;;;5.23;;
17955;SDS011;27666;51.498;11.966;2024-01-30T03:19:54;8.10;;;5.07;;
17955;SDS011;27666;51.498;11.966;2024-01-30T03:22:40;6.63;;;4.90;;
17955;SDS011;27666;51.498;11.966;2024-01-30T03:25:27;9.00;;;5.87;;
17955;SDS011;27666;51.498;11.966;2024-01-30T03:28:14;7.63;;;5.37;;
17955;SDS011;27666;51.498;11.966;2024-01-30T03:31:01;7.87;;;5.27;;
17955;SDS011;27666;51.498;11.966;2024-01-30T03:33:48;8.67;;;4.73;;
17955;SDS011;27666;51.498;11.966;2024-01-30T03:36:34;8.47;;;5.10;;
17955;SDS011;27666;51.498;11.966;2024-01-30T03:39:21;9.23;;;5.60;;
17955;SDS011;27666;51.498;11.966;2024-01-30T03:42:07;10.00;;;5.47;;
17955;SDS011;27666;51.498;11.966;2024-01-30T03:44:56;8.03;;;5.63;;
17955;SDS011;27666;51.498;11.966;2024-01-30T03:47:43;7.17;;;4.83;;
17955;SDS011;27666;51.498;11.966;2024-01-30T03:50:30;6.50;;;4.83;;
17955;SDS011;27666;51.498;11.966;2024-01-30T03:53:17;9.13;;;5.60;;
17955;SDS011;27666;51.498;11.966;2024-01-30T03:56:03;10.17;;;5.20;;
17955;SDS011;27666;51.498;11.966;2024-01-30T03:58:50;8.40;;;5.00;;
17955;SDS011;27666;51.498;11.966;2024-01-30T04:01:38;8.67;;;5.73;;
17955;SDS011;27666;51.498;11.966;2024-01-30T04:04:25;8.13;;;5.30;;
17955;SDS011;27666;51.498;11.966;2024-01-30T04:07:12;9.67;;;5.87;;
17955;SDS011;27666;51.498;11.966;2024-01-30T04:09:59;9.23;;;5.60;;
17955;SDS011;27666;51.498;11.966;2024-01-30T04:12:46;8.03;;;5.10;;
17955;SDS011;27666;51.498;11.966;2024-01-30T04:15:32;7.80;;;5.80;;
17955;SDS011;27666;51.498;11.966;2024-01-30T04:18:21;7.30;;;5.40;;
17955;SDS011;27666;51.498;11.966;2024-01-30T04:21:07;10.53;;;5.20;;
17955;SDS011;27666;51.498;11.966;2024-01-30T04:23:54;9.10;;;5.57;;
17955;SDS011;27666;51.498;11.966;2024-01-30T04:26:42;8.20;;;5.67;;
17955;SDS011;27666;51.498;11.966;2024-01-30T04:29:29;7.43;;;5.60;;
17955;SDS011;27666;51.498;11.966;2024-01-30T04:32:16;11.00;;;5.50;;
17955;SDS011;27666;51.498;11.966;2024-01-30T04:35:05;9.43;;;5.83;;
17955;SDS011;27666;51.498;11.966;2024-01-30T04:37:56;10.43;;;5.50;;
17955;SDS011;27666;51.498;11.966;2024-01-30T04:40:43;9.67;;;5.90;;
17955;SDS011;27666;51.498;11.966;2024-01-30T04:43:29;8.53;;;5.60;;
17955;SDS011;27666;51.498;11.966;2024-01-30T04:46:16;7.87;;;5.60;;
17955;SDS011;27666;51.498;11.966;2024-01-30T04:49:03;8.73;;;5.83;;
17955;SDS011;27666;51.498;11.966;2024-01-30T04:51:51;7.47;;;5.57;;
17955;SDS011;27666;51.498;11.966;2024-01-30T04:54:38;14.03;;;6.20;;
17955;SDS011;27666;51.498;11.966;2024-01-30T04:57:25;12.30;;;5.63;;
17955;SDS011;27666;51.498;11.966;2024-01-30T05:00:12;9.63;;;5.50;;
17955;SDS011;27666;51.498;11.966;2024-01-30T05:02:59;8.13;;;5.47;;
17955;SDS011;27666;51.498;11.966;2024-01-30T05:05:46;10.37;;;6.10;;
17955;SDS011;27666;51.498;11.966;2024-01-30T05:08:34;12.17;;;5.87;;
17955;SDS011;27666;51.498;11.966;2024-01-30T05:11:21;11.47;;;5.47;;
17955;SDS011;27666;51.498;11.966;2024-01-30T05:14:07;9.77;;;5.93;;
17955;SDS011;27666;51.498;11.966;2024-01-30T05:16:55;10.93;;;6.97;;
17955;SDS011;27666;51.498;11.966;2024-01-30T05:19:43;8.57;;;6.40;;
17955;SDS011;27666;51.498;11.966;2024-01-30T05:22:30;9.77;;;6.43;;
17955;SDS011;27666;51.498;11.966;2024-01-30T05:25:17;9.47;;;5.80;;
17955;SDS011;27666;51.498;11.966;2024-01-30T05:28:04;16.90;;;9.23;;
17955;SDS011;27666;51.498;11.966;2024-01-30T05:30:51;11.20;;;7.90;;
17955;SDS011;27666;51.498;11.966;2024-01-30T05:33:37;11.50;;;7.37;;
17955;SDS011;27666;51.498;11.966;2024-01-30T05:36:24;11.40;;;6.93;;
17955;SDS011;27666;51.498;11.966;2024-01-30T05:39:11;10.00;;;7.00;;
17955;SDS011;27666;51.498;11.966;2024-01-30T05:41:59;14.57;;;7.73;;
17955;SDS011;27666;51.498;11.966;2024-01-30T05:44:46;10.27;;;7.30;;
17955;SDS011;27666;51.498;11.966;2024-01-30T05:47:32;10.87;;;7.90;;
17955;SDS011;27666;51.498;11.966;2024-01-30T05:50:19;10.93;;;7.60;;
17955;SDS011;27666;51.498;11.966;2024-01-30T05:53:08;13.50;;;7.47;;
17955;SDS011;27666;51.498;11.966;2024-01-30T05:55:54;11.80;;;7.07;;
17955;SDS011;27666;51.498;11.966;2024-01-30T05:58:42;15.10;;;8.33;;
17955;SDS011;27666;51.498;11.966;2024-01-30T06:01:29;11.87;;;7.10;;
17955;SDS011;27666;51.498;11.966;2024-01-30T06:04:15;11.33;;;6.53;;
17955;SDS011;27666;51.498;11.966;2024-01-30T06:07:02;9.57;;;6.33;;
17955;SDS011;27666;51.498;11.966;2024-01-30T06:09:51;13.27;;;6.50;;
17955;SDS011;27666;51.498;11.966;2024-01-30T06:12:38;17.27;;;10.07;;
17955;SDS011;27666;51.498;11.966;2024-01-30T06:15:25;18.37;;;9.93;;
17955;SDS011;27666;51.498;11.966;2024-01-30T06:18:14;10.77;;;6.47;;
17955;SDS011;27666;51.498;11.966;2024-01-30T06:21:01;9.70;;;6.03;;
17955;SDS011;27666;51.498;11.966;2024-01-30T06:23:48;13.23;;;6.67;;
17955;SDS011;27666;51.498;11.966;2024-01-30T06:26:34;7.97;;;5.03;;
17955;SDS011;27666;51.498;11.966;2024-01-30T06:29:21;11.47;;;6.03;;
17955;SDS011;27666;51.498;11.966;2024-01-30T06:32:11;11.93;;;6.17;;
17955;SDS011;27666;51.498;11.966;2024-01-30T06:34:57;8.67;;;5.07;;
17955;SDS011;27666;51.498;11.966;2024-01-30T06:37:43;9.13;;;6.03;;
17955;SDS011;27666;51.498;11.966;2024-01-30T06:40:30;10.40;;;5.13;;
17955;SDS011;27666;51.498;11.966;2024-01-30T06:43:17;8.73;;;5.23;;
17955;SDS011;27666;51.498;11.966;2024-01-30T06:46:03;10.37;;;5.70;;
17955;SDS011;27666;51.498;11.966;2024-01-30T06:48:51;9.13;;;5.97;;
17955;SDS011;27666;51.498;11.966;2024-01-30T06:51:38;7.03;;;5.30;;
17955;SDS011;27666;51.498;11.966;2024-01-30T06:54:24;8.77;;;5.23;;
17955;SDS011;27666;51.498;11.966;2024-01-30T06:57:11;8.57;;;5.23;;
17955;SDS011;27666;51.498;11.966;2024-01-30T06:59:59;13.97;;;6.97;;
17955;SDS011;27666;51.498;11.966;2024-01-30T07:02:46;8.73;;;5.20;;
17955;SDS011;27666;51.498;11.966;2024-01-30T07:05:34;7.63;;;5.40;;
17955;SDS011;27666;51.498;11.966;2024-01-30T07:08:20;12.10;;;6.80;;
17955;SDS011;27666;51.498;11.966;2024-01-30T07:11:07;9.50;;;5.80;;
17955;SDS011;27666;51.498;11.966;2024-01-30T07:13:54;9.47;;;5.87;;
17955;SDS011;27666;51.498;11.966;2024-01-30T07:16:40;10.07;;;5.93;;
17955;SDS011;27666;51.498;11.966;2024-01-30T07:19:27;9.27;;;5.73;;
17955;SDS011;27666;51.498;11.966;2024-01-30T07:22:14;9.13;;;5.77;;
17955;SDS011;27666;51.498;11.966;2024-01-30T07:25:01;10.40;;;6.27;;
17955;SDS011;27666;51.498;11.966;2024-01-30T07:27:48;14.50;;;6.13;;
17955;SDS011;27666;51.498;11.966;2024-01-30T07:30:35;23.30;;;6.30;;
17955;SDS011;27666;51.498;11.966;2024-01-30T07:33:21;7.93;;;5.37;;
17955;SDS011;27666;51.498;11.966;2024-01-30T07:36:08;10.03;;;6.67;;
17955;SDS011;27666;51.498;11.966;2024-01-30T07:38:56;11.87;;;6.93;;
17955;SDS011;27666;51.498;11.966;2024-01-30T07:41:43;11.20;;;6.77;;
17955;SDS011;27666;51.498;11.966;2024-01-30T07:44:29;10.10;;;6.27;;
17955;SDS011;27666;51.498;11.966;2024-01-30T07:47:16;9.80;;;6.30;;
17955;SDS011;27666;51.498;11.966;2024-01-30T07:50:03;11.90;;;6.40;;
17955;SDS011;27666;51.498;11.966;2024-01-30T07:52:50;9.97;;;5.87;;
17955;SDS011;27666;51.498;11.966;2024-01-30T07:55:40;9.77;;;6.90;;
17955;SDS011;27666;51.498;11.966;2024-01-30T07:58:31;13.63;;;7.17;;
17955;SDS011;27666;51.498;11.966;2024-01-30T08:01:18;11.23;;;7.10;;
17955;SDS011;27666;51.498;11.966;2024-01-30T08:04:05;13.10;;;7.03;;
17955;SDS011;27666;51.498;11.966;2024-01-30T08:06:51;16.80;;;6.57;;
17955;SDS011;27666;51.498;11.966;2024-01-30T08:09:38;11.73;;;6.63;;
17955;SDS011;27666;51.498;11.966;2024-01-30T08:12:26;18.40;;;6.40;;
17955;SDS011;27666;51.498;11.966;2024-01-30T08:15:12;13.53;;;6.30;;
17955;SDS011;27666;51.498;11.966;2024-01-30T08:17:59;13.03;;;6.60;;
17955;SDS011;27666;51.498;11.966;2024-01-30T08:20:45;9.50;;;6.27;;
17955;SDS011;27666;51.498;11.966;2024-01-30T08:23:32;12.47;;;6.70;;
17955;SDS011;27666;51.498;11.966;2024-01-30T08:26:19;9.10;;;6.70;;
17955;SDS011;27666;51.498;11.966;2024-01-30T08:29:07;13.20;;;7.20;;
17955;SDS011;27666;51.498;11.966;2024-01-30T08:31:54;12.77;;;6.60;;
17955;SDS011;27666;51.498;11.966;2024-01-30T08:34:41;11.30;;;6.43;;
17955;SDS011;27666;51.498;11.966;2024-01-30T08:37:27;11.10;;;5.63;;
17955;SDS011;27666;51.498;11.966;2024-01-30T08:40:14;9.57;;;6.47;;
17955;SDS011;27666;51.498;11.966;2024-01-30T08:43:00;10.13;;;6.47;;
17955;SDS011;27666;51.498;11.966;2024-01-30T08:45:49;10.90;;;6.47;;
17955;SDS011;27666;51.498;11.966;2024-01-30T08:48:36;9.53;;;5.53;;
17955;SDS011;27666;51.498;11.966;2024-01-30T08:51:22;8.90;;;5.60;;
17955;SDS011;27666;51.498;11.966;2024-01-30T08:54:09;12.77;;;6.20;;
17955;SDS011;27666;51.498;11.966;2024-01-30T08:56:55;14.20;;;6.13;;
17955;SDS011;27666;51.498;11.966;2024-01-30T08:59:43;9.97;;;5.63;;
17955;SDS011;27666;51.498;11.966;2024-01-30T09:02:32;8.23;;;5.67;;
17955;SDS011;27666;51.498;11.966;2024-01-30T09:05:19;17.43;;;8.20;;
17955;SDS011;27666;51.498;11.966;2024-01-30T09:08:06;11.80;;;5.87;;
17955;SDS011;27666;51.498;11.966;2024-01-30T09:10:53;8.33;;;5.60;;
17955;SDS011;27666;51.498;11.966;2024-01-30T09:13:40;10.07;;;6.40;;
17955;SDS011;27666;51.498;11.966;2024-01-30T09:16:28;7.87;;;5.43;;
17955;SDS011;27666;51.498;11.966;2024-01-30T09:19:15;9.47;;;5.33;;
17955;SDS011;27666;51.498;11.966;2024-01-30T09:22:03;9.77;;;5.43;;
17955;SDS011;27666;51.498;11.966;2024-01-30T09:24:49;8.77;;;5.10;;
17955;SDS011;27666;51.498;11.966;2024-01-30T09:27:36;8.20;;;4.93;;
17955;SDS011;27666;51.498;11.966;2024-01-30T09:30:22;9.60;;;4.40;;
17955;SDS011;27666;51.498;11.966;2024-01-30T09:33:09;8.10;;;4.80;;
17955;SDS011;27666;51.498;11.966;2024-01-30T09:35:57;10.03;;;4.40;;
17955;SDS011;27666;51.498;11.966;2024-01-30T09:38:43;6.97;;;4.87;;
17955;SDS011;27666;51.498;11.966;2024-01-30T09:41:30;7.70;;;4.93;;
17955;SDS011;27666;51.498;11.966;2024-01-30T09:44:19;9.37;;;5.40;;
17955;SDS011;27666;51.498;11.966;2024-01-30T09:47:06;9.53;;;4.80;;
17955;SDS011;27666;51.498;11.966;2024-01-30T09:49:53;10.50;;;5.20;;
17955;SDS011;27666;51.498;11.966;2024-01-30T09:52:43;10.50;;;5.27;;
17955;SDS011;27666;51.498;11.966;2024-01-30T09:55:30;9.47;;;4.80;;
17955;SDS011;27666;51.498;11.966;2024-01-30T09:58:17;8.53;;;4.97;;
17955;SDS011;27666;51.498;11.966;2024-01-30T10:01:03;8.90;;;5.30;;
17955;SDS011;27666;51.498;11.966;2024-01-30T10:03:50;7.20;;;4.70;;
17955;SDS011;27666;51.498;11.966;2024-01-30T10:06:38;9.83;;;4.83;;
17955;SDS011;27666;51.498;11.966;2024-01-30T10:09:27;7.30;;;4.57;;
17955;SDS011;27666;51.498;11.966;2024-01-30T10:12:17;6.30;;;4.47;;
17955;SDS011;27666;51.498;11.966;2024-01-30T10:15:06;8.53;;;4.90;;
17955;SDS011;27666;51.498;11.966;2024-01-30T10:17:54;10.50;;;5.00;;
17955;SDS011;27666;51.498;11.966;2024-01-30T10:20:40;9.07;;;4.30;;
17955;SDS011;27666;51.498;11.966;2024-01-30T10:23:28;8.73;;;5.10;;
17955;SDS011;27666;51.498;11.966;2024-01-30T10:26:21;7.83;;;4.63;;
17955;SDS011;27666;51.498;11.966;2024-01-30T10:29:08;6.13;;;5.00;;
17955;SDS011;27666;51.498;11.966;2024-01-30T10:31:58;7.20;;;4.93;;
17955;SDS011;27666;51.498;11.966;2024-01-30T10:34:45;7.73;;;4.90;;
17955;SDS011;27666;51.498;11.966;2024-01-30T10:37:32;7.57;;;4.73;;
17955;SDS011;27666;51.498;11.966;2024-01-30T10:40:20;10.83;;;5.97;;
17955;SDS011;27666;51.498;11.966;2024-01-30T10:43:12;15.50;;;7.77;;
17955;SDS011;27666;51.498;11.966;2024-01-30T10:46:06;10.53;;;5.70;;
17955;SDS011;27666;51.498;11.966;2024-01-30T10:49:00;10.83;;;5.50;;
17955;SDS011;27666;51.498;11.966;2024-01-30T10:51:47;7.30;;;4.90;;
17955;SDS011;27666;51.498;11.966;2024-01-30T10:54:36;7.07;;;4.80;;
17955;SDS011;27666;51.498;11.966;2024-01-30T10:57:26;10.00;;;4.87;;
17955;SDS011;27666;51.498;11.966;2024-01-30T11:00:15;5.97;;;5.10;;
17955;SDS011;27666;51.498;11.966;2024-01-30T11:03:02;10.83;;;5.40;;
17955;SDS011;27666;51.498;11.966;2024-01-30T11:05:50;8.70;;;5.90;;
17955;SDS011;27666;51.498;11.966;2024-01-30T11:08:37;6.47;;;5.13;;
17955;SDS011;27666;51.498;11.966;2024-01-30T11:11:23;10.23;;;5.67;;
17955;SDS011;27666;51.498;11.966;2024-01-30T11:14:10;8.57;;;5.20;;
17955;SDS011;27666;51.498;11.966;2024-01-30T11:16:58;8.00;;;5.30;;
17955;SDS011;27666;51.498;11.966;2024-01-30T11:19:46;7.20;;;4.87;;
17955;SDS011;27666;51.498;11.966;2024-01-30T11:22:33;6.67;;;4.43;;
17955;SDS011;27666;51.498;11.966;2024-01-30T11:25:21;9.00;;;5.47;;
17955;SDS011;27666;51.498;11.966;2024-01-30T11:28:12;12.97;;;6.50;;
17955;SDS011;27666;51.498;11.966;2024-01-30T11:31:04;7.90;;;5.30;;
17955;SDS011;27666;51.498;11.966;2024-01-30T11:33:53;7.77;;;5.40;;
17955;SDS011;27666;51.498;11.966;2024-01-30T11:36:40;12.50;;;5.67;;
17955;SDS011;27666;51.498;11.966;2024-01-30T11:39:30;12.33;;;5.23;;
17955;SDS011;27666;51.498;11.966;2024-01-30T11:42:17;7.67;;;5.17;;
17955;SDS011;27666;51.498;11.966;2024-01-30T11:45:04;10.60;;;5.53;;
17955;SDS011;27666;51.498;11.966;2024-01-30T11:47:52;8.67;;;5.30;;
17955;SDS011;27666;51.498;11.966;2024-01-30T11:50:40;6.00;;;4.80;;
17955;SDS011;27666;51.498;11.966;2024-01-30T11:53:27;6.50;;;4.93;;
17955;SDS011;27666;51.498;11.966;2024-01-30T11:56:16;8.33;;;5.03;;
17955;SDS011;27666;51.498;11.966;2024-01-30T11:59:03;7.13;;;5.27;;
17955;SDS011;27666;51.498;11.966;2024-01-30T12:01:51;10.20;;;6.90;;
17955;SDS011;27666;51.498;11.966;2024-01-30T12:04:38;7.60;;;5.23;;
17955;SDS011;27666;51.498;11.966;2024-01-30T12:07:26;7.63;;;5.60;;
17955;SDS011;27666;51.498;11.966;2024-01-30T12:10:13;7.80;;;5.60;;
17955;SDS011;27666;51.498;11.966;2024-01-30T12:13:00;10.97;;;5.30;;
17955;SDS011;27666;51.498;11.966;2024-01-30T12:15:47;10.27;;;5.83;;
17955;SDS011;27666;51.498;11.966;2024-01-30T12:18:34;11.43;;;5.53;;
17955;SDS011;27666;51.498;11.966;2024-01-30T12:21:22;9.17;;;5.13;;
17955;SDS011;27666;51.498;11.966;2024-01-30T12:24:10;9.50;;;5.30;;
17955;SDS011;27666;51.498;11.966;2024-01-30T12:26:57;7.50;;;5.30;;
17955;SDS011;27666;51.498;11.966;2024-01-30T12:29:45;8.73;;;5.13;;
17955;SDS011;27666;51.498;11.966;2024-01-30T12:32:34;9.80;;;5.27;;
17955;SDS011;27666;51.498;11.966;2024-01-30T12:35:21;8.83;;;5.63;;
17955;SDS011;27666;51.498;11.966;2024-01-30T12:38:12;9.83;;;5.83;;
17955;SDS011;27666;51.498;11.966;2024-01-30T12:41:00;9.67;;;5.90;;
17955;SDS011;27666;51.498;11.966;2024-01-30T12:43:47;6.43;;;5.27;;
17955;SDS011;27666;51.498;11.966;2024-01-30T12:46:34;13.90;;;5.77;;
17955;SDS011;27666;51.498;11.966;2024-01-30T12:49:21;7.10;;;5.37;;
17955;SDS011;27666;51.498;11.966;2024-01-30T12:52:08;9.57;;;5.37;;
17955;SDS011;27666;51.498;11.966;2024-01-30T12:54:56;9.50;;;6.20;;
17955;SDS011;27666;51.498;11.966;2024-01-30T12:57:44;10.23;;;6.53;;
17955;SDS011;27666;51.498;11.966;2024-01-30T13:00:32;11.73;;;6.87;;
17955;SDS011;27666;51.498;11.966;2024-01-30T13:03:19;10.33;;;5.93;;
17955;SDS011;27666;51.498;11.966;2024-01-30T13:06:06;10.10;;;5.90;;
17955;SDS011;27666;51.498;11.966;2024-01-30T13:08:53;7.80;;;5.93;;
17955;SDS011;27666;51.498;11.966;2024-01-30T13:11:41;9.40;;;5.87;;
17955;SDS011;27666;51.498;11.966;2024-01-30T13:14:29;7.37;;;5.33;;
17955;SDS011;27666;51.498;11.966;2024-01-30T13:17:15;8.87;;;5.40;;
17955;SDS011;27666;51.498;11.966;2024-01-30T13:20:03;10.33;;;6.27;;
17955;SDS011;27666;51.498;11.966;2024-01-30T13:22:56;12.60;;;5.87;;
17955;SDS011;27666;51.498;11.966;2024-01-30T13:25:43;8.30;;;5.10;;
17955;SDS011;27666;51.498;11.966;2024-01-30T13:28:30;9.07;;;6.23;;
17955;SDS011;27666;51.498;11.966;2024-01-30T13:31:18;10.37;;;5.90;;
17955;SDS011;27666;51.498;11.966;2024-01-30T13:34:06;12.03;;;5.87;;
17955;SDS011;27666;51.498;11.966;2024-01-30T13:36:53;13.53;;;6.47;;
17955;SDS011;27666;51.498;11.966;2024-01-30T13:39:40;10.10;;;6.43;;
17955;SDS011;27666;51.498;11.966;2024-01-30T13:42:27;12.27;;;6.33;;
17955;SDS011;27666;51.498;11.966;2024-01-30T13:45:14;9.13;;;5.93;;
17955;SDS011;27666;51.498;11.966;2024-01-30T13:48:03;11.47;;;6.20;;
17955;SDS011;27666;51.498;11.966;2024-01-30T13:50:50;8.70;;;5.37;;
17955;SDS011;27666;51.498;11.966;2024-01-30T13:53:38;7.50;;;5.37;;
17955;SDS011;27666;51.498;11.966;2024-01-30T13:56:25;8.10;;;5.77;;
17955;SDS011;27666;51.498;11.966;2024-01-30T13:59:12;8.63;;;5.87;;
17955;SDS011;27666;51.498;11.966;2024-01-30T14:01:59;9.20;;;5.30;;
17955;SDS011;27666;51.498;11.966;2024-01-30T14:04:48;9.87;;;5.63;;
17955;SDS011;27666;51.498;11.966;2024-01-30T14:07:35;7.80;;;5.43;;
17955;SDS011;27666;51.498;11.966;2024-01-30T14:10:22;10.67;;;5.60;;
17955;SDS011;27666;51.498;11.966;2024-01-30T14:13:10;8.37;;;5.83;;
17955;SDS011;27666;51.498;11.966;2024-01-30T14:15:57;7.77;;;5.83;;
17955;SDS011;27666;51.498;11.966;2024-01-30T14:18:44;9.63;;;5.90;;
17955;SDS011;27666;51.498;11.966;2024-01-30T14:21:32;9.90;;;5.87;;
17955;SDS011;27666;51.498;11.966;2024-01-30T14:24:19;14.37;;;5.37;;
17955;SDS011;27666;51.498;11.966;2024-01-30T14:27:07;8.77;;;6.07;;
17955;SDS011;27666;51.498;11.966;2024-01-30T14:29:53;9.47;;;6.00;;
17955;SDS011;27666;51.498;11.966;2024-01-30T14:32:40;9.67;;;6.17;;
17955;SDS011;27666;51.498;11.966;2024-01-30T14:35:30;11.20;;;6.53;;
17955;SDS011;27666;51.498;11.966;2024-01-30T14:38:18;12.60;;;6.33;;
17955;SDS011;27666;51.498;11.966;2024-01-30T14:41:05;16.13;;;7.60;;
17955;SDS011;27666;51.498;11.966;2024-01-30T14:43:52;12.90;;;7.00;;
17955;SDS011;27666;51.498;11.966;2024-01-30T14:46:40;16.43;;;7.07;;
17955;SDS011;27666;51.498;11.966;2024-01-30T14:49:27;14.67;;;7.73;;
17955;SDS011;27666;51.498;11.966;2024-01-30T14:52:14;11.73;;;6.97;;
17955;SDS011;27666;51.498;11.966;2024-01-30T14:55:03;15.10;;;6.77;;
17955;SDS011;27666;51.498;11.966;2024-01-30T14:57:50;9.23;;;6.27;;
17955;SDS011;27666;51.498;11.966;2024-01-30T15:00:37;18.13;;;7.13;;
17955;SDS011;27666;51.498;11.966;2024-01-30T15:03:26;12.80;;;6.80;;
17955;SDS011;27666;51.498;11.966;2024-01-30T15:06:14;12.07;;;6.97;;
17955;SDS011;27666;51.498;11.966;2024-01-30T15:09:01;10.53;;;7.30;;
17955;SDS011;27666;51.498;11.966;2024-01-30T15:11:49;10.80;;;7.03;;
17955;SDS011;27666;51.498;11.966;2024-01-30T15:14:37;18.13;;;7.80;;
17955;SDS011;27666;51.498;11.966;2024-01-30T15:17:24;16.83;;;7.83;;
17955;SDS011;27666;51.498;11.966;2024-01-30T15:20:11;13.10;;;7.23;;
17955;SDS011;27666;51.498;11.966;2024-01-30T15:22:58;12.20;;;7.67;;
17955;SDS011;27666;51.498;11.966;2024-01-30T15:25:45;10.63;;;6.47;;
17955;SDS011;27666;51.498;11.966;2024-01-30T15:28:37;12.53;;;6.73;;
17955;SDS011;27666;51.498;11.966;2024-01-30T15:31:24;12.63;;;6.80;;
17955;SDS011;27666;51.498;11.966;2024-01-30T15:34:11;16.50;;;7.53;;
17955;SDS011;27666;51.498;11.966;2024-01-30T15:36:58;11.63;;;6.77;;
17955;SDS011;27666;51.498;11.966;2024-01-30T15:39:45;13.57;;;7.60;;
17955;SDS011;27666;51.498;11.966;2024-01-30T15:42:32;10.63;;;7.10;;
17955;SDS011;27666;51.498;11.966;2024-01-30T15:45:21;13.80;;;7.37;;
17955;SDS011;27666;51.498;11.966;2024-01-30T15:48:11;10.60;;;7.77;;
17955;SDS011;27666;51.498;11.966;2024-01-30T15:50:58;11.23;;;7.80;;
17955;SDS011;27666;51.498;11.966;2024-01-30T15:53:45;10.57;;;7.43;;
17955;SDS011;27666;51.498;11.966;2024-01-30T15:56:32;11.27;;;7.57;;
17955;SDS011;27666;51.498;11.966;2024-01-30T15:59:19;12.33;;;7.17;;
17955;SDS011;27666;51.498;11.966;2024-01-30T16:02:07;12.17;;;7.67;;
17955;SDS011;27666;51.498;11.966;2024-01-30T16:04:55;11.80;;;7.37;;
17955;SDS011;27666;51.498;11.966;2024-01-30T16:07:42;12.27;;;8.17;;
17955;SDS011;27666;51.498;11.966;2024-01-30T16:10:30;10.67;;;7.50;;
17955;SDS011;27666;51.498;11.966;2024-01-30T16:13:16;13.03;;;7.80;;
17955;SDS011;27666;51.498;11.966;2024-01-30T16:16:04;13.43;;;7.50;;
17955;SDS011;27666;51.498;11.966;2024-01-30T16:18:52;13.30;;;6.60;;
17955;SDS011;27666;51.498;11.966;2024-01-30T16:21:39;10.77;;;7.50;;
17955;SDS011;27666;51.498;11.966;2024-01-30T16:24:28;10.23;;;6.87;;
17955;SDS011;27666;51.498;11.966;2024-01-30T16:27:15;11.43;;;7.20;;